sensor_id;sensor_type;location;lat;lon;timestamp;temperature;humidity
66035;HTU21D;52805;51.074;5.842;2023-11-19T00:00:33;13.41;118.99
66035;HTU21D;52805;51.074;5.842;2023-11-19T00:02:59;13.44;118.99
66035;HTU21D;52805;51.074;5.842;2023-11-19T00:05:24;13.49;118.99
66035;HTU21D;52805;51.074;5.842;2023-11-19T00:07:50;13.45;118.99
66035;HTU21D;52805;51.074;5.842;2023-11-19T00:10:17;13.44;118.99
66035;HTU21D;52805;51.074;5.842;2023-11-19T00:12:49;13.43;118.99
66035;HTU21D;52805;51.074;5.842;2023-11-19T00:15:17;13.47;118.99
66035;HTU21D;52805;51.074;5.842;2023-11-19T00:17:47;13.47;118.99
66035;HTU21D;52805;51.074;5.842;2023-11-19T00:20:16;13.49;118.99
66035;HTU21D;52805;51.074;5.842;2023-11-19T00:22:42;13.48;118.99
66035;HTU21D;52805;51.074;5.842;2023-11-19T00:25:11;13.58;118.99
66035;HTU21D;52805;51.074;5.842;2023-11-19T00:27:37;13.55;118.99
66035;HTU21D;52805;51.074;5.842;2023-11-19T00:30:07;13.55;118.99
66035;HTU21D;52805;51.074;5.842;2023-11-19T00:32:33;13.61;118.99
66035;HTU21D;52805;51.074;5.842;2023-11-19T00:35:00;13.56;118.99
66035;HTU21D;52805;51.074;5.842;2023-11-19T00:37:26;13.61;118.99
66035;HTU21D;52805;51.074;5.842;2023-11-19T00:39:52;13.67;118.99
66035;HTU21D;52805;51.074;5.842;2023-11-19T00:42:18;13.64;118.99
66035;HTU21D;52805;51.074;5.842;2023-11-19T00:44:43;13.66;118.99
66035;HTU21D;52805;51.074;5.842;2023-11-19T00:47:09;13.64;118.99
66035;HTU21D;52805;51.074;5.842;2023-11-19T00:49:37;13.66;118.99
66035;HTU21D;52805;51.074;5.842;2023-11-19T00:52:03;13.71;118.99
66035;HTU21D;52805;51.074;5.842;2023-11-19T00:54:29;13.73;118.99
66035;HTU21D;52805;51.074;5.842;2023-11-19T00:56:55;13.77;118.99
66035;HTU21D;52805;51.074;5.842;2023-11-19T00:59:21;13.75;118.99
66035;HTU21D;52805;51.074;5.842;2023-11-19T01:01:46;13.77;118.99
66035;HTU21D;52805;51.074;5.842;2023-11-19T01:04:16;13.82;118.99
66035;HTU21D;52805;51.074;5.842;2023-11-19T01:06:42;13.78;118.99
66035;HTU21D;52805;51.074;5.842;2023-11-19T01:09:08;13.80;118.99
66035;HTU21D;52805;51.074;5.842;2023-11-19T01:11:35;13.81;118.99
66035;HTU21D;52805;51.074;5.842;2023-11-19T01:14:01;13.88;118.99
66035;HTU21D;52805;51.074;5.842;2023-11-19T01:16:27;13.91;118.99
66035;HTU21D;52805;51.074;5.842;2023-11-19T01:18:53;13.91;118.99
66035;HTU21D;52805;51.074;5.842;2023-11-19T01:21:18;13.92;118.99
66035;HTU21D;52805;51.074;5.842;2023-11-19T01:23:44;13.96;118.99
66035;HTU21D;52805;51.074;5.842;2023-11-19T01:26:12;13.98;118.99
66035;HTU21D;52805;51.074;5.842;2023-11-19T01:28:39;13.98;118.99
66035;HTU21D;52805;51.074;5.842;2023-11-19T01:31:15;13.98;118.99
66035;HTU21D;52805;51.074;5.842;2023-11-19T01:33:41;14.01;118.99
66035;HTU21D;52805;51.074;5.842;2023-11-19T01:36:07;14.03;118.99
66035;HTU21D;52805;51.074;5.842;2023-11-19T01:38:34;14.04;118.99
66035;HTU21D;52805;51.074;5.842;2023-11-19T01:41:00;14.04;118.99
66035;HTU21D;52805;51.074;5.842;2023-11-19T01:43:39;14.05;118.99
66035;HTU21D;52805;51.074;5.842;2023-11-19T01:46:08;14.07;118.99
66035;HTU21D;52805;51.074;5.842;2023-11-19T01:48:40;14.08;118.99
66035;HTU21D;52805;51.074;5.842;2023-11-19T01:51:07;14.08;118.99
66035;HTU21D;52805;51.074;5.842;2023-11-19T01:53:36;14.09;118.99
66035;HTU21D;52805;51.074;5.842;2023-11-19T01:56:04;14.14;118.99
66035;HTU21D;52805;51.074;5.842;2023-11-19T01:58:30;14.13;118.99
66035;HTU21D;52805;51.074;5.842;2023-11-19T02:00:57;14.08;118.99
66035;HTU21D;52805;51.074;5.842;2023-11-19T02:03:24;14.05;118.99
66035;HTU21D;52805;51.074;5.842;2023-11-19T02:05:52;14.08;118.99
66035;HTU21D;52805;51.074;5.842;2023-11-19T02:08:18;14.08;118.99
66035;HTU21D;52805;51.074;5.842;2023-11-19T02:10:45;14.04;118.99
66035;HTU21D;52805;51.074;5.842;2023-11-19T02:13:11;14.00;118.99
66035;HTU21D;52805;51.074;5.842;2023-11-19T02:15:40;13.99;118.99
66035;HTU21D;52805;51.074;5.842;2023-11-19T02:18:24;14.00;118.99
66035;HTU21D;52805;51.074;5.842;2023-11-19T02:20:59;14.00;118.99
66035;HTU21D;52805;51.074;5.842;2023-11-19T02:23:29;14.03;118.99
66035;HTU21D;52805;51.074;5.842;2023-11-19T02:26:19;14.04;118.99
66035;HTU21D;52805;51.074;5.842;2023-11-19T02:28:48;14.03;118.99
66035;HTU21D;52805;51.074;5.842;2023-11-19T02:31:14;14.01;118.99
66035;HTU21D;52805;51.074;5.842;2023-11-19T02:33:42;14.00;118.99
66035;HTU21D;52805;51.074;5.842;2023-11-19T02:36:09;14.05;118.99
66035;HTU21D;52805;51.074;5.842;2023-11-19T02:38:35;14.01;118.99
66035;HTU21D;52805;51.074;5.842;2023-11-19T02:41:03;13.98;118.99
66035;HTU21D;52805;51.074;5.842;2023-11-19T02:43:32;13.97;118.99
66035;HTU21D;52805;51.074;5.842;2023-11-19T02:46:07;13.96;118.99
66035;HTU21D;52805;51.074;5.842;2023-11-19T02:48:35;13.96;118.99
66035;HTU21D;52805;51.074;5.842;2023-11-19T02:51:02;13.98;118.99
66035;HTU21D;52805;51.074;5.842;2023-11-19T02:53:29;13.97;118.99
66035;HTU21D;52805;51.074;5.842;2023-11-19T02:55:55;13.97;118.99
66035;HTU21D;52805;51.074;5.842;2023-11-19T02:58:29;13.99;118.99
66035;HTU21D;52805;51.074;5.842;2023-11-19T03:00:56;13.96;118.99
66035;HTU21D;52805;51.074;5.842;2023-11-19T03:03:27;13.96;118.99
66035;HTU21D;52805;51.074;5.842;2023-11-19T03:06:07;13.94;118.99
66035;HTU21D;52805;51.074;5.842;2023-11-19T03:08:36;13.93;118.99
66035;HTU21D;52805;51.074;5.842;2023-11-19T03:11:02;13.88;118.99
66035;HTU21D;52805;51.074;5.842;2023-11-19T03:13:30;13.86;118.99
66035;HTU21D;52805;51.074;5.842;2023-11-19T03:15:56;13.91;118.99
66035;HTU21D;52805;51.074;5.842;2023-11-19T03:18:21;13.95;118.99
66035;HTU21D;52805;51.074;5.842;2023-11-19T03:20:47;13.91;118.99
66035;HTU21D;52805;51.074;5.842;2023-11-19T03:23:13;13.89;118.99
66035;HTU21D;52805;51.074;5.842;2023-11-19T03:25:39;13.86;118.99
66035;HTU21D;52805;51.074;5.842;2023-11-19T03:28:04;13.80;118.99
66035;HTU21D;52805;51.074;5.842;2023-11-19T03:30:31;13.78;118.99
66035;HTU21D;52805;51.074;5.842;2023-11-19T03:32:57;13.76;118.99
66035;HTU21D;52805;51.074;5.842;2023-11-19T03:35:24;13.71;118.99
66035;HTU21D;52805;51.074;5.842;2023-11-19T03:37:51;13.64;118.99
66035;HTU21D;52805;51.074;5.842;2023-11-19T03:40:17;13.64;118.99
66035;HTU21D;52805;51.074;5.842;2023-11-19T03:42:45;13.55;118.99
66035;HTU21D;52805;51.074;5.842;2023-11-19T03:45:11;13.53;118.99
66035;HTU21D;52805;51.074;5.842;2023-11-19T03:47:38;13.52;118.99
66035;HTU21D;52805;51.074;5.842;2023-11-19T03:50:05;13.51;118.99
66035;HTU21D;52805;51.074;5.842;2023-11-19T03:52:34;13.50;118.99
66035;HTU21D;52805;51.074;5.842;2023-11-19T03:55:00;13.52;118.99
66035;HTU21D;52805;51.074;5.842;2023-11-19T03:57:27;13.52;118.99
66035;HTU21D;52805;51.074;5.842;2023-11-19T03:59:53;13.52;118.99
66035;HTU21D;52805;51.074;5.842;2023-11-19T04:02:21;13.58;118.99
66035;HTU21D;52805;51.074;5.842;2023-11-19T04:04:46;13.55;118.99
66035;HTU21D;52805;51.074;5.842;2023-11-19T04:07:12;13.58;118.99
66035;HTU21D;52805;51.074;5.842;2023-11-19T04:09:38;13.58;118.99
66035;HTU21D;52805;51.074;5.842;2023-11-19T04:12:04;13.59;118.99
66035;HTU21D;52805;51.074;5.842;2023-11-19T04:14:30;13.60;118.99
66035;HTU21D;52805;51.074;5.842;2023-11-19T04:16:56;13.52;118.99
66035;HTU21D;52805;51.074;5.842;2023-11-19T04:19:22;13.48;118.99
66035;HTU21D;52805;51.074;5.842;2023-11-19T04:21:48;13.47;118.99
66035;HTU21D;52805;51.074;5.842;2023-11-19T04:24:14;13.47;118.99
66035;HTU21D;52805;51.074;5.842;2023-11-19T04:26:44;13.50;118.99
66035;HTU21D;52805;51.074;5.842;2023-11-19T04:29:14;13.47;118.99
66035;HTU21D;52805;51.074;5.842;2023-11-19T04:31:41;13.50;118.99
66035;HTU21D;52805;51.074;5.842;2023-11-19T04:34:07;13.46;118.99
66035;HTU21D;52805;51.074;5.842;2023-11-19T04:36:34;13.46;118.99
66035;HTU21D;52805;51.074;5.842;2023-11-19T04:39:00;13.48;118.99
66035;HTU21D;52805;51.074;5.842;2023-11-19T04:41:27;13.49;118.99
66035;HTU21D;52805;51.074;5.842;2023-11-19T04:43:56;13.46;118.99
66035;HTU21D;52805;51.074;5.842;2023-11-19T04:46:21;13.45;118.99
66035;HTU21D;52805;51.074;5.842;2023-11-19T04:48:49;13.45;118.99
66035;HTU21D;52805;51.074;5.842;2023-11-19T04:51:15;13.40;118.99
66035;HTU21D;52805;51.074;5.842;2023-11-19T04:53:41;13.36;118.99
66035;HTU21D;52805;51.074;5.842;2023-11-19T04:56:10;13.37;118.99
66035;HTU21D;52805;51.074;5.842;2023-11-19T04:58:36;13.38;118.99
66035;HTU21D;52805;51.074;5.842;2023-11-19T05:01:03;13.40;118.99
66035;HTU21D;52805;51.074;5.842;2023-11-19T05:03:30;13.40;118.99
66035;HTU21D;52805;51.074;5.842;2023-11-19T05:05:57;13.36;118.99
66035;HTU21D;52805;51.074;5.842;2023-11-19T05:08:22;13.40;118.99
66035;HTU21D;52805;51.074;5.842;2023-11-19T05:10:48;13.40;118.99
66035;HTU21D;52805;51.074;5.842;2023-11-19T05:13:14;13.36;118.99
66035;HTU21D;52805;51.074;5.842;2023-11-19T05:15:40;13.41;118.99
66035;HTU21D;52805;51.074;5.842;2023-11-19T05:18:06;13.37;118.99
66035;HTU21D;52805;51.074;5.842;2023-11-19T05:20:32;13.39;118.99
66035;HTU21D;52805;51.074;5.842;2023-11-19T05:22:58;13.43;118.99
66035;HTU21D;52805;51.074;5.842;2023-11-19T05:25:26;13.34;118.99
66035;HTU21D;52805;51.074;5.842;2023-11-19T05:27:52;13.27;118.99
66035;HTU21D;52805;51.074;5.842;2023-11-19T05:30:18;13.25;118.99
66035;HTU21D;52805;51.074;5.842;2023-11-19T05:32:44;13.24;118.99
66035;HTU21D;52805;51.074;5.842;2023-11-19T05:35:11;13.24;118.99
66035;HTU21D;52805;51.074;5.842;2023-11-19T05:37:37;13.22;118.99
66035;HTU21D;52805;51.074;5.842;2023-11-19T05:40:03;13.25;118.99
66035;HTU21D;52805;51.074;5.842;2023-11-19T05:42:32;13.19;118.99
66035;HTU21D;52805;51.074;5.842;2023-11-19T05:44:57;13.29;118.99
66035;HTU21D;52805;51.074;5.842;2023-11-19T05:47:23;13.22;118.99
66035;HTU21D;52805;51.074;5.842;2023-11-19T05:49:49;13.21;118.99
66035;HTU21D;52805;51.074;5.842;2023-11-19T05:52:15;13.20;118.99
66035;HTU21D;52805;51.074;5.842;2023-11-19T05:54:40;13.15;118.99
66035;HTU21D;52805;51.074;5.842;2023-11-19T05:57:07;13.09;118.99
66035;HTU21D;52805;51.074;5.842;2023-11-19T05:59:36;13.03;118.99
66035;HTU21D;52805;51.074;5.842;2023-11-19T06:02:05;13.02;118.99
66035;HTU21D;52805;51.074;5.842;2023-11-19T06:04:30;13.05;118.99
66035;HTU21D;52805;51.074;5.842;2023-11-19T06:06:56;12.97;118.99
66035;HTU21D;52805;51.074;5.842;2023-11-19T06:09:22;12.93;118.99
66035;HTU21D;52805;51.074;5.842;2023-11-19T06:11:51;12.93;118.99
66035;HTU21D;52805;51.074;5.842;2023-11-19T06:14:18;12.95;118.99
66035;HTU21D;52805;51.074;5.842;2023-11-19T06:16:44;12.91;118.99
66035;HTU21D;52805;51.074;5.842;2023-11-19T06:19:13;12.95;118.99
66035;HTU21D;52805;51.074;5.842;2023-11-19T06:21:38;12.92;118.99
66035;HTU21D;52805;51.074;5.842;2023-11-19T06:24:04;12.91;118.99
66035;HTU21D;52805;51.074;5.842;2023-11-19T06:26:30;12.91;118.99
66035;HTU21D;52805;51.074;5.842;2023-11-19T06:28:56;12.91;118.99
66035;HTU21D;52805;51.074;5.842;2023-11-19T06:31:21;12.85;118.99
66035;HTU21D;52805;51.074;5.842;2023-11-19T06:33:49;12.80;118.99
66035;HTU21D;52805;51.074;5.842;2023-11-19T06:36:15;12.81;118.99
66035;HTU21D;52805;51.074;5.842;2023-11-19T06:38:43;12.77;118.99
66035;HTU21D;52805;51.074;5.842;2023-11-19T06:41:09;12.79;118.99
66035;HTU21D;52805;51.074;5.842;2023-11-19T06:43:36;12.72;118.99
66035;HTU21D;52805;51.074;5.842;2023-11-19T06:46:02;12.73;118.99
66035;HTU21D;52805;51.074;5.842;2023-11-19T06:48:32;12.74;118.99
66035;HTU21D;52805;51.074;5.842;2023-11-19T06:50:57;12.72;118.99
66035;HTU21D;52805;51.074;5.842;2023-11-19T06:53:23;12.73;118.99
66035;HTU21D;52805;51.074;5.842;2023-11-19T06:55:49;12.73;118.99
66035;HTU21D;52805;51.074;5.842;2023-11-19T06:58:15;12.70;118.99
66035;HTU21D;52805;51.074;5.842;2023-11-19T07:00:40;12.66;118.99
66035;HTU21D;52805;51.074;5.842;2023-11-19T07:03:06;12.64;118.99
66035;HTU21D;52805;51.074;5.842;2023-11-19T07:05:36;12.63;118.99
66035;HTU21D;52805;51.074;5.842;2023-11-19T07:08:04;12.61;118.99
66035;HTU21D;52805;51.074;5.842;2023-11-19T07:10:29;12.60;118.99
66035;HTU21D;52805;51.074;5.842;2023-11-19T07:12:56;12.64;118.99
66035;HTU21D;52805;51.074;5.842;2023-11-19T07:15:23;12.62;118.99
66035;HTU21D;52805;51.074;5.842;2023-11-19T07:17:48;12.58;118.99
66035;HTU21D;52805;51.074;5.842;2023-11-19T07:20:14;12.65;118.99
66035;HTU21D;52805;51.074;5.842;2023-11-19T07:22:45;12.62;118.99
66035;HTU21D;52805;51.074;5.842;2023-11-19T07:25:13;12.61;118.99
66035;HTU21D;52805;51.074;5.842;2023-11-19T07:27:38;12.60;118.99
66035;HTU21D;52805;51.074;5.842;2023-11-19T07:30:05;12.60;118.99
66035;HTU21D;52805;51.074;5.842;2023-11-19T07:32:33;12.61;118.99
66035;HTU21D;52805;51.074;5.842;2023-11-19T07:34:58;12.60;118.99
66035;HTU21D;52805;51.074;5.842;2023-11-19T07:37:25;12.65;118.99
66035;HTU21D;52805;51.074;5.842;2023-11-19T07:39:51;12.60;118.99
66035;HTU21D;52805;51.074;5.842;2023-11-19T07:42:16;12.65;118.99
66035;HTU21D;52805;51.074;5.842;2023-11-19T07:44:44;12.67;118.99
66035;HTU21D;52805;51.074;5.842;2023-11-19T07:47:09;12.66;118.99
66035;HTU21D;52805;51.074;5.842;2023-11-19T07:49:35;12.67;118.99
66035;HTU21D;52805;51.074;5.842;2023-11-19T07:52:02;12.67;118.99
66035;HTU21D;52805;51.074;5.842;2023-11-19T07:54:28;12.70;118.99
66035;HTU21D;52805;51.074;5.842;2023-11-19T07:56:54;12.74;118.99
66035;HTU21D;52805;51.074;5.842;2023-11-19T07:59:20;12.77;118.99
66035;HTU21D;52805;51.074;5.842;2023-11-19T08:01:45;12.78;118.99
66035;HTU21D;52805;51.074;5.842;2023-11-19T08:04:11;12.82;118.99
66035;HTU21D;52805;51.074;5.842;2023-11-19T08:06:37;12.86;118.99
66035;HTU21D;52805;51.074;5.842;2023-11-19T08:09:02;12.84;118.99
66035;HTU21D;52805;51.074;5.842;2023-11-19T08:11:28;12.84;118.99
66035;HTU21D;52805;51.074;5.842;2023-11-19T08:13:54;12.88;118.99
66035;HTU21D;52805;51.074;5.842;2023-11-19T08:16:19;12.91;118.99
66035;HTU21D;52805;51.074;5.842;2023-11-19T08:18:45;12.90;118.99
66035;HTU21D;52805;51.074;5.842;2023-11-19T08:21:11;12.88;118.99
66035;HTU21D;52805;51.074;5.842;2023-11-19T08:23:36;12.91;118.99
66035;HTU21D;52805;51.074;5.842;2023-11-19T08:26:04;12.95;118.99
66035;HTU21D;52805;51.074;5.842;2023-11-19T08:28:30;12.96;118.99
66035;HTU21D;52805;51.074;5.842;2023-11-19T08:30:56;13.00;118.99
66035;HTU21D;52805;51.074;5.842;2023-11-19T08:33:22;13.06;118.99
66035;HTU21D;52805;51.074;5.842;2023-11-19T08:35:48;13.04;118.99
66035;HTU21D;52805;51.074;5.842;2023-11-19T08:38:14;13.08;118.99
66035;HTU21D;52805;51.074;5.842;2023-11-19T08:40:39;13.15;118.99
66035;HTU21D;52805;51.074;5.842;2023-11-19T08:43:05;13.19;118.99
66035;HTU21D;52805;51.074;5.842;2023-11-19T08:45:31;13.30;118.99
66035;HTU21D;52805;51.074;5.842;2023-11-19T08:47:57;13.23;118.99
66035;HTU21D;52805;51.074;5.842;2023-11-19T08:50:23;13.21;118.99
66035;HTU21D;52805;51.074;5.842;2023-11-19T08:52:49;13.22;118.99
66035;HTU21D;52805;51.074;5.842;2023-11-19T08:55:15;13.24;118.99
66035;HTU21D;52805;51.074;5.842;2023-11-19T08:57:40;13.20;118.99
66035;HTU21D;52805;51.074;5.842;2023-11-19T09:00:07;13.27;118.99
66035;HTU21D;52805;51.074;5.842;2023-11-19T09:02:34;13.20;118.99
66035;HTU21D;52805;51.074;5.842;2023-11-19T09:05:01;13.22;118.99
66035;HTU21D;52805;51.074;5.842;2023-11-19T09:07:27;13.20;118.99
66035;HTU21D;52805;51.074;5.842;2023-11-19T09:09:52;13.26;118.99
66035;HTU21D;52805;51.074;5.842;2023-11-19T09:12:18;13.29;118.99
66035;HTU21D;52805;51.074;5.842;2023-11-19T09:14:44;13.30;118.99
66035;HTU21D;52805;51.074;5.842;2023-11-19T09:17:12;13.38;118.99
66035;HTU21D;52805;51.074;5.842;2023-11-19T09:19:37;13.41;118.99
66035;HTU21D;52805;51.074;5.842;2023-11-19T09:22:03;13.50;118.99
66035;HTU21D;52805;51.074;5.842;2023-11-19T09:24:29;13.53;118.99
66035;HTU21D;52805;51.074;5.842;2023-11-19T09:26:55;13.59;118.99
66035;HTU21D;52805;51.074;5.842;2023-11-19T09:29:21;13.66;118.99
66035;HTU21D;52805;51.074;5.842;2023-11-19T09:31:47;13.74;118.99
66035;HTU21D;52805;51.074;5.842;2023-11-19T09:34:13;13.79;118.99
66035;HTU21D;52805;51.074;5.842;2023-11-19T09:36:38;13.85;118.99
66035;HTU21D;52805;51.074;5.842;2023-11-19T09:39:10;13.85;118.99
66035;HTU21D;52805;51.074;5.842;2023-11-19T09:41:36;13.92;118.99
66035;HTU21D;52805;51.074;5.842;2023-11-19T09:44:01;13.96;118.99
66035;HTU21D;52805;51.074;5.842;2023-11-19T09:46:28;13.98;118.99
66035;HTU21D;52805;51.074;5.842;2023-11-19T09:48:56;13.96;118.99
66035;HTU21D;52805;51.074;5.842;2023-11-19T09:51:23;13.98;118.99
66035;HTU21D;52805;51.074;5.842;2023-11-19T09:53:49;14.08;118.99
66035;HTU21D;52805;51.074;5.842;2023-11-19T09:56:15;14.09;117.49
66035;HTU21D;52805;51.074;5.842;2023-11-19T09:58:44;14.09;117.85
66035;HTU21D;52805;51.074;5.842;2023-11-19T10:01:10;14.08;117.66
66035;HTU21D;52805;51.074;5.842;2023-11-19T10:03:39;14.03;118.99
66035;HTU21D;52805;51.074;5.842;2023-11-19T10:06:07;14.11;118.35
66035;HTU21D;52805;51.074;5.842;2023-11-19T10:08:34;14.13;117.77
66035;HTU21D;52805;51.074;5.842;2023-11-19T10:11:00;14.14;116.02
66035;HTU21D;52805;51.074;5.842;2023-11-19T10:13:29;14.12;116.11
66035;HTU21D;52805;51.074;5.842;2023-11-19T10:15:57;14.13;115.32
66035;HTU21D;52805;51.074;5.842;2023-11-19T10:18:26;14.14;115.63
66035;HTU21D;52805;51.074;5.842;2023-11-19T10:20:52;14.10;113.78
66035;HTU21D;52805;51.074;5.842;2023-11-19T10:23:18;14.08;112.96
66035;HTU21D;52805;51.074;5.842;2023-11-19T10:25:44;14.14;113.79
66035;HTU21D;52805;51.074;5.842;2023-11-19T10:28:12;14.22;112.13
66035;HTU21D;52805;51.074;5.842;2023-11-19T10:30:41;14.24;111.36
66035;HTU21D;52805;51.074;5.842;2023-11-19T10:33:12;14.23;111.91
66035;HTU21D;52805;51.074;5.842;2023-11-19T10:35:57;14.21;112.34
66035;HTU21D;52805;51.074;5.842;2023-11-19T10:38:24;14.18;113.36
66035;HTU21D;52805;51.074;5.842;2023-11-19T10:40:52;14.15;113.03
66035;HTU21D;52805;51.074;5.842;2023-11-19T10:43:19;14.07;113.26
66035;HTU21D;52805;51.074;5.842;2023-11-19T10:45:45;14.09;114.16
66035;HTU21D;52805;51.074;5.842;2023-11-19T10:48:11;14.18;113.90
66035;HTU21D;52805;51.074;5.842;2023-11-19T10:50:40;14.25;114.83
66035;HTU21D;52805;51.074;5.842;2023-11-19T10:53:08;14.37;113.73
66035;HTU21D;52805;51.074;5.842;2023-11-19T10:55:36;14.39;112.36
66035;HTU21D;52805;51.074;5.842;2023-11-19T10:58:08;14.47;111.55
66035;HTU21D;52805;51.074;5.842;2023-11-19T11:00:57;14.55;109.38
66035;HTU21D;52805;51.074;5.842;2023-11-19T11:03:25;14.58;105.83
66035;HTU21D;52805;51.074;5.842;2023-11-19T11:05:53;14.58;107.27
66035;HTU21D;52805;51.074;5.842;2023-11-19T11:08:20;14.57;106.82
66035;HTU21D;52805;51.074;5.842;2023-11-19T11:10:55;14.53;105.91
66035;HTU21D;52805;51.074;5.842;2023-11-19T11:13:26;14.47;106.20
66035;HTU21D;52805;51.074;5.842;2023-11-19T11:15:56;14.39;106.87
66035;HTU21D;52805;51.074;5.842;2023-11-19T11:18:26;14.36;105.67
66035;HTU21D;52805;51.074;5.842;2023-11-19T11:20:58;14.41;103.30
66035;HTU21D;52805;51.074;5.842;2023-11-19T11:29:20;14.53;104.12
66035;HTU21D;52805;51.074;5.842;2023-11-19T11:38:04;14.69;102.85
66035;HTU21D;52805;51.074;5.842;2023-11-19T11:40:32;14.71;102.71
66035;HTU21D;52805;51.074;5.842;2023-11-19T11:42:58;14.69;103.37
66035;HTU21D;52805;51.074;5.842;2023-11-19T11:45:36;14.71;101.76
66035;HTU21D;52805;51.074;5.842;2023-11-19T11:48:10;14.68;102.48
66035;HTU21D;52805;51.074;5.842;2023-11-19T11:50:56;14.66;102.22
66035;HTU21D;52805;51.074;5.842;2023-11-19T11:53:24;14.60;102.89
66035;HTU21D;52805;51.074;5.842;2023-11-19T11:58:21;14.55;103.76
66035;HTU21D;52805;51.074;5.842;2023-11-19T12:00:48;14.53;105.08
66035;HTU21D;52805;51.074;5.842;2023-11-19T12:03:14;14.55;105.79
66035;HTU21D;52805;51.074;5.842;2023-11-19T12:05:45;14.56;106.83
66035;HTU21D;52805;51.074;5.842;2023-11-19T12:08:19;14.55;107.91
66035;HTU21D;52805;51.074;5.842;2023-11-19T12:10:50;14.54;109.13
66035;HTU21D;52805;51.074;5.842;2023-11-19T12:13:19;14.52;108.78
66035;HTU21D;52805;51.074;5.842;2023-11-19T12:18:33;14.70;108.42
66035;HTU21D;52805;51.074;5.842;2023-11-19T12:20:59;14.69;108.43
66035;HTU21D;52805;51.074;5.842;2023-11-19T12:23:31;14.65;109.55
66035;HTU21D;52805;51.074;5.842;2023-11-19T12:25:58;14.59;110.02
66035;HTU21D;52805;51.074;5.842;2023-11-19T12:28:24;14.52;110.07
66035;HTU21D;52805;51.074;5.842;2023-11-19T12:30:52;14.48;108.67
66035;HTU21D;52805;51.074;5.842;2023-11-19T12:33:19;14.35;109.58
66035;HTU21D;52805;51.074;5.842;2023-11-19T12:35:47;14.32;110.39
66035;HTU21D;52805;51.074;5.842;2023-11-19T12:38:24;14.27;111.53
66035;HTU21D;52805;51.074;5.842;2023-11-19T12:41:05;14.29;111.88
66035;HTU21D;52805;51.074;5.842;2023-11-19T12:43:32;14.26;113.38
66035;HTU21D;52805;51.074;5.842;2023-11-19T12:46:00;14.29;113.14
66035;HTU21D;52805;51.074;5.842;2023-11-19T12:48:26;14.33;113.98
66035;HTU21D;52805;51.074;5.842;2023-11-19T12:50:58;14.39;113.76
66035;HTU21D;52805;51.074;5.842;2023-11-19T12:53:27;14.41;113.99
66035;HTU21D;52805;51.074;5.842;2023-11-19T12:55:54;14.45;112.32
66035;HTU21D;52805;51.074;5.842;2023-11-19T12:58:36;14.52;110.35
66035;HTU21D;52805;51.074;5.842;2023-11-19T13:01:07;14.58;109.45
66035;HTU21D;52805;51.074;5.842;2023-11-19T13:03:38;14.60;109.58
66035;HTU21D;52805;51.074;5.842;2023-11-19T13:06:12;14.60;107.43
66035;HTU21D;52805;51.074;5.842;2023-11-19T13:08:43;14.59;108.03
66035;HTU21D;52805;51.074;5.842;2023-11-19T13:11:12;14.60;107.26
66035;HTU21D;52805;51.074;5.842;2023-11-19T13:14:01;14.56;106.93
66035;HTU21D;52805;51.074;5.842;2023-11-19T13:16:30;14.59;106.02
66035;HTU21D;52805;51.074;5.842;2023-11-19T13:18:57;14.57;105.92
66035;HTU21D;52805;51.074;5.842;2023-11-19T13:21:23;14.59;105.02
66035;HTU21D;52805;51.074;5.842;2023-11-19T13:23:49;14.51;104.47
66035;HTU21D;52805;51.074;5.842;2023-11-19T13:26:15;14.45;104.95
66035;HTU21D;52805;51.074;5.842;2023-11-19T13:28:42;14.38;106.73
66035;HTU21D;52805;51.074;5.842;2023-11-19T13:31:07;14.30;108.12
66035;HTU21D;52805;51.074;5.842;2023-11-19T13:33:33;14.23;108.88
66035;HTU21D;52805;51.074;5.842;2023-11-19T13:35:59;14.18;111.03
66035;HTU21D;52805;51.074;5.842;2023-11-19T13:38:31;14.17;110.57
66035;HTU21D;52805;51.074;5.842;2023-11-19T13:40:58;14.09;112.47
66035;HTU21D;52805;51.074;5.842;2023-11-19T13:43:25;14.07;114.04
66035;HTU21D;52805;51.074;5.842;2023-11-19T13:45:50;14.09;113.92
66035;HTU21D;52805;51.074;5.842;2023-11-19T13:48:18;14.11;113.37
66035;HTU21D;52805;51.074;5.842;2023-11-19T13:50:44;14.24;112.39
66035;HTU21D;52805;51.074;5.842;2023-11-19T13:53:10;14.26;112.71
66035;HTU21D;52805;51.074;5.842;2023-11-19T13:55:36;14.35;113.26
66035;HTU21D;52805;51.074;5.842;2023-11-19T13:58:02;14.41;111.67
66035;HTU21D;52805;51.074;5.842;2023-11-19T14:00:28;14.43;109.55
66035;HTU21D;52805;51.074;5.842;2023-11-19T14:02:53;14.36;108.98
66035;HTU21D;52805;51.074;5.842;2023-11-19T14:05:19;14.33;108.65
66035;HTU21D;52805;51.074;5.842;2023-11-19T14:07:45;14.33;106.87
66035;HTU21D;52805;51.074;5.842;2023-11-19T14:10:14;14.32;106.58
66035;HTU21D;52805;51.074;5.842;2023-11-19T14:12:41;14.26;107.67
66035;HTU21D;52805;51.074;5.842;2023-11-19T14:15:08;14.26;107.26
66035;HTU21D;52805;51.074;5.842;2023-11-19T14:17:43;14.22;106.37
66035;HTU21D;52805;51.074;5.842;2023-11-19T14:20:09;14.17;107.89
66035;HTU21D;52805;51.074;5.842;2023-11-19T14:22:44;14.09;109.25
66035;HTU21D;52805;51.074;5.842;2023-11-19T14:25:13;14.06;110.33
66035;HTU21D;52805;51.074;5.842;2023-11-19T14:27:40;13.99;112.52
66035;HTU21D;52805;51.074;5.842;2023-11-19T14:30:10;13.93;113.55
66035;HTU21D;52805;51.074;5.842;2023-11-19T14:32:37;13.88;115.13
66035;HTU21D;52805;51.074;5.842;2023-11-19T14:35:07;13.83;116.58
66035;HTU21D;52805;51.074;5.842;2023-11-19T14:37:35;13.80;118.14
66035;HTU21D;52805;51.074;5.842;2023-11-19T14:40:02;13.79;118.98
66035;HTU21D;52805;51.074;5.842;2023-11-19T14:42:31;13.78;118.92
66035;HTU21D;52805;51.074;5.842;2023-11-19T14:44:57;13.67;118.99
66035;HTU21D;52805;51.074;5.842;2023-11-19T14:47:24;13.62;118.99
66035;HTU21D;52805;51.074;5.842;2023-11-19T14:49:49;13.55;118.99
66035;HTU21D;52805;51.074;5.842;2023-11-19T14:52:15;13.56;118.99
66035;HTU21D;52805;51.074;5.842;2023-11-19T14:54:41;13.55;118.99
66035;HTU21D;52805;51.074;5.842;2023-11-19T14:57:07;13.53;118.99
66035;HTU21D;52805;51.074;5.842;2023-11-19T14:59:38;13.54;118.99
66035;HTU21D;52805;51.074;5.842;2023-11-19T15:02:05;13.58;118.99
66035;HTU21D;52805;51.074;5.842;2023-11-19T15:04:33;13.54;118.99
66035;HTU21D;52805;51.074;5.842;2023-11-19T15:07:02;13.54;118.99
66035;HTU21D;52805;51.074;5.842;2023-11-19T15:09:29;13.53;118.99
66035;HTU21D;52805;51.074;5.842;2023-11-19T15:11:56;13.53;118.99
66035;HTU21D;52805;51.074;5.842;2023-11-19T15:14:23;13.53;118.99
66035;HTU21D;52805;51.074;5.842;2023-11-19T15:16:49;13.55;118.99
66035;HTU21D;52805;51.074;5.842;2023-11-19T15:19:16;13.56;118.99
66035;HTU21D;52805;51.074;5.842;2023-11-19T15:21:42;13.51;118.99